Time;durP1;ratioP1;P1;durP2;ratioP2;P2;SDS_P1;SDS_P2;PMS_P1;PMS_P2;Temp;Humidity;BMP_temperature;BMP_pressure;BME280_temperature;BME280_humidity;BME280_pressure;Samples;Min_cycle;Max_cycle;Signal;HPM_P1;HPM_P2
2022/01/31 00:00:22;;;;;;;4.68;3.08;;;3.90;82.40;;;;;;5138942;27;20476;-43
2022/01/31 00:02:48;;;;;;;4.85;3.05;;;4.00;82.30;;;;;;5139240;27;20334;-42
2022/01/31 00:05:14;;;;;;;4.03;2.88;;;4.00;82.40;;;;;;5139000;27;20031;-34
2022/01/31 00:07:40;;;;;;;4.18;2.90;;;3.90;82.30;;;;;;5138997;27;20053;-42
2022/01/31 00:10:09;;;;;;;5.60;2.92;;;3.90;82.20;;;;;;5139141;27;20102;-35
2022/01/31 00:12:58;;;;;;;3.72;2.70;;;3.90;82.20;;;;;;5139124;27;20035;-33
2022/01/31 00:15:24;;;;;;;5.75;2.90;;;3.80;82.20;;;;;;5138704;27;20015;-43
2022/01/31 00:17:50;;;;;;;6.28;3.38;;;3.90;82.40;;;;;;5139127;27;20023;-42
2022/01/31 00:20:16;;;;;;;5.55;2.92;;;3.80;82.50;;;;;;5138790;27;20102;-42
2022/01/31 00:22:41;;;;;;;4.55;2.92;;;3.80;82.40;;;;;;5139132;27;20106;-33
2022/01/31 00:25:07;;;;;;;3.35;2.40;;;3.80;82.40;;;;;;5138550;27;20023;-43
2022/01/31 00:27:33;;;;;;;11.90;6.35;;;3.80;82.40;;;;;;5138944;27;20042;-40
2022/01/31 00:29:59;;;;;;;3.03;2.20;;;3.80;82.40;;;;;;5138766;27;20020;-41
2022/01/31 00:32:27;;;;;;;3.33;2.53;;;3.90;82.30;;;;;;5138595;27;20031;-32
2022/01/31 00:34:52;;;;;;;3.33;2.42;;;3.90;82.30;;;;;;5138459;27;20031;-42
2022/01/31 00:37:18;;;;;;;4.40;2.28;;;3.90;82.20;;;;;;5138533;27;20312;-34
2022/01/31 00:39:43;;;;;;;3.72;2.20;;;3.90;82.20;;;;;;5137899;27;20410;-43
2022/01/31 00:42:09;;;;;;;5.95;2.75;;;3.90;82.30;;;;;;5138490;27;20035;-43
2022/01/31 00:44:48;;;;;;;7.50;3.35;;;3.90;82.40;;;;;;5137863;27;20113;-43
2022/01/31 00:47:20;;;;;;;5.00;2.85;;;3.90;82.10;;;;;;5138598;27;20055;-36
2022/01/31 00:49:55;;;;;;;5.15;3.20;;;3.90;82.10;;;;;;5137919;27;20023;-32
2022/01/31 00:52:20;;;;;;;3.67;2.85;;;3.90;82.00;;;;;;5138356;27;20033;-42
2022/01/31 00:54:47;;;;;;;7.07;2.67;;;4.00;81.90;;;;;;5137958;27;20023;-42
2022/01/31 00:57:12;;;;;;;5.22;2.78;;;4.00;82.00;;;;;;5138498;27;20031;-42
2022/01/31 00:59:38;;;;;;;4.78;2.45;;;4.00;81.80;;;;;;5137853;27;20328;-42
2022/01/31 01:02:04;;;;;;;4.10;2.50;;;4.00;81.70;;;;;;5138280;27;20035;-42
2022/01/31 01:04:30;;;;;;;6.65;2.90;;;4.00;81.60;;;;;;5137846;27;20031;-33
2022/01/31 01:06:56;;;;;;;4.43;2.15;;;4.00;81.60;;;;;;5138243;27;20373;-34
2022/01/31 01:09:22;;;;;;;2.78;2.20;;;4.00;81.50;;;;;;5137421;27;20096;-43
2022/01/31 01:11:48;;;;;;;3.58;2.60;;;4.10;81.70;;;;;;5137944;27;20042;-42
2022/01/31 01:14:13;;;;;;;3.83;2.80;;;4.10;81.80;;;;;;5138146;27;20038;-42
2022/01/31 01:16:39;;;;;;;3.70;2.58;;;4.10;81.60;;;;;;5137578;27;20024;-42
2022/01/31 01:19:05;;;;;;;3.03;2.42;;;4.10;81.60;;;;;;5137668;27;20047;-37
2022/01/31 01:21:31;;;;;;;3.33;2.15;;;4.10;81.60;;;;;;5137355;27;20419;-42
2022/01/31 01:23:56;;;;;;;6.43;2.85;;;4.20;81.70;;;;;;5138005;27;20031;-43
2022/01/31 01:26:22;;;;;;;3.67;2.33;;;4.10;81.60;;;;;;5137374;27;20399;-34
2022/01/31 01:28:48;;;;;;;3.38;2.47;;;4.20;81.70;;;;;;5137360;27;20028;-32
2022/01/31 01:31:14;;;;;;;3.75;2.38;;;4.20;81.60;;;;;;5137438;27;20047;-33
2022/01/31 01:33:41;;;;;;;2.33;2.13;;;4.10;81.50;;;;;;5137639;27;20106;-32
2022/01/31 01:36:07;;;;;;;5.90;2.67;;;4.10;81.50;;;;;;5137029;27;20487;-32
2022/01/31 01:38:34;;;;;;;4.15;2.63;;;4.20;81.50;;;;;;5137547;27;20031;-33
2022/01/31 01:41:00;;;;;;;3.10;2.75;;;4.10;81.60;;;;;;5136999;27;20037;-42
2022/01/31 01:43:27;;;;;;;3.53;2.58;;;4.20;81.80;;;;;;5137640;27;20110;-33
2022/01/31 01:45:55;;;;;;;5.28;2.50;;;4.10;81.80;;;;;;5136840;27;20015;-43
2022/01/31 01:48:20;;;;;;;3.80;2.40;;;4.20;82.10;;;;;;5137564;27;20305;-42
2022/01/31 01:50:46;;;;;;;3.60;2.58;;;4.10;82.10;;;;;;5136811;27;20118;-42
2022/01/31 01:53:12;;;;;;;5.97;2.53;;;4.10;82.20;;;;;;5137537;27;20054;-32
2022/01/31 01:55:38;;;;;;;4.15;2.10;;;4.20;82.20;;;;;;5136914;27;20027;-32
2022/01/31 01:58:06;;;;;;;3.33;2.40;;;4.20;82.00;;;;;;5137268;27;20069;-33
2022/01/31 02:00:43;;;;;;;4.18;2.50;;;4.20;81.70;;;;;;5136696;27;20075;-33
2022/01/31 02:03:09;;;;;;;3.63;2.40;;;4.20;81.60;;;;;;5137292;27;20039;-32
2022/01/31 02:05:35;;;;;;;4.30;2.60;;;4.20;81.50;;;;;;5136696;27;20426;-32
2022/01/31 02:08:00;;;;;;;2.83;2.03;;;4.10;81.10;;;;;;5136849;28;20441;-42
2022/01/31 02:10:28;;;;;;;2.60;1.90;;;4.20;81.20;;;;;;5136686;28;20068;-43
2022/01/31 02:12:54;;;;;;;3.30;2.20;;;4.10;81.10;;;;;;5137150;28;20031;-37
2022/01/31 02:15:24;;;;;;;2.03;1.70;;;4.10;81.20;;;;;;5136793;28;20023;-32
2022/01/31 02:17:49;;;;;;;2.97;1.93;;;4.10;81.20;;;;;;5137067;28;20445;-39
2022/01/31 02:20:15;;;;;;;2.40;1.70;;;4.10;81.20;;;;;;5136560;28;20109;-37
2022/01/31 02:22:41;;;;;;;4.55;2.10;;;4.10;80.90;;;;;;5136874;28;20035;-42
2022/01/31 02:25:07;;;;;;;3.35;2.10;;;4.10;80.90;;;;;;5136848;28;20027;-42
2022/01/31 02:27:35;;;;;;;3.10;2.20;;;4.00;80.50;;;;;;5136978;28;20427;-42
2022/01/31 02:30:01;;;;;;;3.05;1.95;;;4.10;80.40;;;;;;5136856;28;20068;-43
2022/01/31 02:32:27;;;;;;;4.05;2.15;;;4.00;80.10;;;;;;5136950;28;20062;-43
2022/01/31 02:34:53;;;;;;;3.30;1.95;;;4.00;80.10;;;;;;5136321;28;20368;-43
2022/01/31 02:37:20;;;;;;;3.28;2.08;;;4.00;80.20;;;;;;5137268;28;20035;-43
2022/01/31 02:39:46;;;;;;;3.60;2.20;;;4.00;80.20;;;;;;5136277;28;20035;-33
2022/01/31 02:42:13;;;;;;;3.05;2.00;;;4.00;80.30;;;;;;5136674;28;20114;-43
2022/01/31 02:44:40;;;;;;;3.60;2.20;;;3.90;80.10;;;;;;5136261;28;20476;-43
2022/01/31 02:47:11;;;;;;;2.17;1.60;;;3.90;80.30;;;;;;5136598;27;20038;-43
2022/01/31 02:49:47;;;;;;;2.30;1.55;;;4.00;80.30;;;;;;5139697;27;20055;-43
2022/01/31 02:52:14;;;;;;;2.40;1.80;;;4.00;80.10;;;;;;5140557;27;20064;-43
2022/01/31 02:54:39;;;;;;;2.20;1.63;;;4.00;79.70;;;;;;5140100;27;20038;-32
2022/01/31 02:57:05;;;;;;;2.47;1.50;;;4.10;79.60;;;;;;5140777;27;20039;-32
2022/01/31 02:59:33;;;;;;;2.28;1.60;;;4.10;79.00;;;;;;5140437;27;20447;-33
2022/01/31 03:01:59;;;;;;;2.28;1.38;;;4.10;79.20;;;;;;5140371;27;20031;-32
2022/01/31 03:04:25;;;;;;;2.75;1.88;;;4.10;79.20;;;;;;5140101;27;20029;-43
2022/01/31 03:06:53;;;;;;;3.05;1.63;;;4.10;79.30;;;;;;5140277;27;20019;-43
2022/01/31 03:09:19;;;;;;;2.83;1.58;;;4.10;79.10;;;;;;5139867;27;20349;-43
2022/01/31 03:11:45;;;;;;;3.13;1.45;;;4.10;78.80;;;;;;5140074;27;20023;-32
2022/01/31 03:14:11;;;;;;;1.60;1.38;;;4.10;78.80;;;;;;5140402;27;20027;-42
2022/01/31 03:16:40;;;;;;;2.30;1.58;;;4.10;78.80;;;;;;5139941;27;20026;-33
2022/01/31 03:19:07;;;;;;;2.40;1.77;;;4.10;78.70;;;;;;5140251;27;20026;-33
2022/01/31 03:21:33;;;;;;;3.00;1.67;;;4.10;78.60;;;;;;5139787;27;20047;-32
2022/01/31 03:23:59;;;;;;;3.55;2.13;;;4.10;78.70;;;;;;5140099;27;20059;-43
2022/01/31 03:26:25;;;;;;;3.72;2.00;;;4.10;79.10;;;;;;5140037;27;20054;-33
2022/01/31 03:28:53;;;;;;;2.83;1.83;;;4.10;78.50;;;;;;5140274;27;20076;-33
2022/01/31 03:31:18;;;;;;;2.47;1.50;;;4.10;78.30;;;;;;5139962;27;20428;-33
2022/01/31 03:33:47;;;;;;;2.20;1.55;;;4.10;78.30;;;;;;5140079;27;20036;-43
2022/01/31 03:36:13;;;;;;;3.00;2.20;;;4.10;78.30;;;;;;5139457;27;20326;-34
2022/01/31 03:38:40;;;;;;;2.72;1.55;;;4.00;78.40;;;;;;5139935;27;20119;-35
2022/01/31 03:41:07;;;;;;;6.38;1.92;;;4.00;78.40;;;;;;5139763;27;20431;-33
2022/01/31 03:43:33;;;;;;;3.53;1.90;;;4.00;78.40;;;;;;5139843;27;20123;-43
2022/01/31 03:45:59;;;;;;;2.95;1.70;;;3.90;78.50;;;;;;5139297;27;20387;-43
2022/01/31 03:48:27;;;;;;;3.42;2.05;;;3.90;78.70;;;;;;5139771;27;20035;-43
2022/01/31 03:50:54;;;;;;;2.95;1.80;;;3.90;78.70;;;;;;5139243;27;20102;-43
2022/01/31 03:53:20;;;;;;;1.73;1.45;;;3.90;78.90;;;;;;5139693;27;20039;-34
2022/01/31 03:55:45;;;;;;;1.65;1.50;;;3.80;79.00;;;;;;5139166;27;20027;-35
2022/01/31 03:58:11;;;;;;;2.30;1.50;;;3.80;79.20;;;;;;5139603;27;20023;-43
2022/01/31 04:00:37;;;;;;;5.00;1.90;;;3.80;79.30;;;;;;5138611;27;20019;-35
2022/01/31 04:03:02;;;;;;;2.15;1.58;;;3.80;79.50;;;;;;5139547;27;20087;-34
2022/01/31 04:05:28;;;;;;;2.92;1.77;;;3.70;79.50;;;;;;5139147;27;20354;-43
2022/01/31 04:07:54;;;;;;;3.55;2.17;;;3.70;79.60;;;;;;5139180;27;20039;-33
2022/01/31 04:10:19;;;;;;;3.05;1.65;;;3.70;79.60;;;;;;5139032;27;20050;-43
2022/01/31 04:12:45;;;;;;;5.38;2.90;;;3.70;79.60;;;;;;5138998;27;20031;-43
2022/01/31 04:15:11;;;;;;;2.40;2.17;;;3.60;79.40;;;;;;5138796;27;20030;-43
2022/01/31 04:17:38;;;;;;;4.45;2.00;;;3.60;79.50;;;;;;5138967;27;20031;-43
2022/01/31 04:20:08;;;;;;;6.47;3.97;;;3.50;79.80;;;;;;5138436;27;20037;-33
2022/01/31 04:22:45;;;;;;;2.90;1.88;;;3.50;80.10;;;;;;5138779;27;20423;-38
2022/01/31 04:25:27;;;;;;;4.95;1.80;;;3.50;80.10;;;;;;5138865;27;20038;-43
2022/01/31 04:28:01;;;;;;;2.80;1.40;;;3.40;80.10;;;;;;5138917;27;20315;-36
2022/01/31 04:30:31;;;;;;;2.00;1.40;;;3.40;80.10;;;;;;5138648;27;20034;-43
2022/01/31 04:32:57;;;;;;;1.70;1.30;;;3.40;80.10;;;;;;5138853;27;20115;-43
2022/01/31 04:35:23;;;;;;;3.70;1.90;;;3.40;80.10;;;;;;5138555;27;20064;-42
2022/01/31 04:37:48;;;;;;;1.75;1.50;;;3.40;80.20;;;;;;5138657;27;20547;-33
2022/01/31 04:40:15;;;;;;;2.67;1.60;;;3.40;80.30;;;;;;5138135;27;20019;-34
2022/01/31 04:42:44;;;;;;;1.90;1.58;;;3.40;80.40;;;;;;5138291;27;20035;-33
2022/01/31 04:45:11;;;;;;;2.40;1.65;;;3.30;80.30;;;;;;5138395;27;20027;-43
2022/01/31 04:47:36;;;;;;;2.05;1.60;;;3.40;80.40;;;;;;5138532;27;20038;-43
2022/01/31 04:50:05;;;;;;;2.83;1.63;;;3.40;80.40;;;;;;5138008;27;20319;-44
2022/01/31 04:52:31;;;;;;;3.75;1.95;;;3.30;80.40;;;;;;5138403;27;20039;-43
2022/01/31 04:54:57;;;;;;;4.10;2.20;;;3.30;80.40;;;;;;5137946;27;20023;-43
2022/01/31 04:57:22;;;;;;;5.72;1.88;;;3.30;80.40;;;;;;5138145;27;20028;-38
2022/01/31 04:59:49;;;;;;;3.92;1.85;;;3.40;80.40;;;;;;5137447;27;20101;-33
2022/01/31 05:02:15;;;;;;;2.90;1.55;;;3.30;80.30;;;;;;5138288;27;20043;-33
2022/01/31 05:04:40;;;;;;;8.70;3.45;;;3.30;80.40;;;;;;5137446;27;20455;-44
2022/01/31 05:07:06;;;;;;;4.97;2.30;;;3.40;80.50;;;;;;5137940;27;20034;-36
2022/01/31 05:09:32;;;;;;;5.10;1.73;;;3.40;80.60;;;;;;5137344;27;20067;-43
2022/01/31 05:11:58;;;;;;;3.08;1.50;;;3.40;80.70;;;;;;5137135;27;20023;-33
2022/01/31 05:14:24;;;;;;;2.33;1.40;;;3.40;80.70;;;;;;5137646;27;20027;-44
2022/01/31 05:16:50;;;;;;;2.40;1.52;;;3.40;80.60;;;;;;5137828;27;20046;-43
2022/01/31 05:19:17;;;;;;;1.75;1.60;;;3.40;80.60;;;;;;5137281;27;20047;-33
2022/01/31 05:21:43;;;;;;;4.78;1.80;;;3.50;81.40;;;;;;5137662;27;20083;-33
2022/01/31 05:24:10;;;;;;;5.15;2.63;;;3.50;80.90;;;;;;5137298;27;20068;-44
2022/01/31 05:26:36;;;;;;;5.28;1.90;;;3.50;80.80;;;;;;5137005;27;20031;-43
2022/01/31 05:29:02;;;;;;;14.18;4.30;;;3.50;80.40;;;;;;5137217;27;20068;-33
2022/01/31 05:31:28;;;;;;;9.60;3.15;;;3.60;80.40;;;;;;5137380;27;20403;-43
2022/01/31 05:33:54;;;;;;;9.13;2.83;;;3.60;80.40;;;;;;5137573;27;20031;-44
2022/01/31 05:36:21;;;;;;;4.47;2.60;;;3.50;80.50;;;;;;5137375;27;20331;-34
2022/01/31 05:38:46;;;;;;;10.27;3.10;;;3.60;80.50;;;;;;5137643;27;20035;-44
2022/01/31 05:41:18;;;;;;;8.23;2.88;;;3.60;80.30;;;;;;5136956;27;20038;-35
2022/01/31 05:43:45;;;;;;;11.68;3.53;;;3.60;80.20;;;;;;5137419;27;20042;-44
2022/01/31 05:46:10;;;;;;;13.23;3.55;;;3.50;80.00;;;;;;5136720;27;20027;-44
2022/01/31 05:48:36;;;;;;;8.52;2.88;;;3.60;80.10;;;;;;5137319;27;20388;-33
2022/01/31 05:51:02;;;;;;;15.40;2.95;;;3.60;80.10;;;;;;5136818;27;20063;-37
2022/01/31 05:53:30;;;;;;;7.68;2.38;;;3.60;79.90;;;;;;5137309;27;20128;-46
2022/01/31 05:55:57;;;;;;;4.88;1.95;;;3.50;79.90;;;;;;5136878;27;20032;-35
2022/01/31 05:58:23;;;;;;;4.43;1.38;;;3.50;79.70;;;;;;5137081;27;20031;-33
2022/01/31 06:00:48;;;;;;;11.88;2.38;;;3.50;79.50;;;;;;5136193;27;20431;-43
2022/01/31 06:03:14;;;;;;;7.82;1.73;;;3.60;79.60;;;;;;5137021;27;20030;-34
2022/01/31 06:05:40;;;;;;;6.05;1.88;;;3.50;79.40;;;;;;5136407;27;20061;-36
2022/01/31 06:08:06;;;;;;;3.33;1.63;;;3.60;79.40;;;;;;5136646;27;20100;-43
2022/01/31 06:10:33;;;;;;;14.32;2.38;;;3.60;79.40;;;;;;5136449;28;20034;-43
2022/01/31 06:12:59;;;;;;;6.25;1.45;;;3.60;79.20;;;;;;5136870;28;20028;-43
2022/01/31 06:15:24;;;;;;;4.53;1.70;;;3.50;79.20;;;;;;5136746;28;20028;-33
2022/01/31 06:17:50;;;;;;;2.10;1.40;;;3.50;79.30;;;;;;5137085;28;20102;-33
2022/01/31 06:20:16;;;;;;;5.40;1.50;;;3.50;79.40;;;;;;5136306;28;20441;-34
2022/01/31 06:22:49;;;;;;;6.53;1.52;;;3.50;79.50;;;;;;5138861;27;20035;-43
2022/01/31 06:25:15;;;;;;;5.28;1.35;;;3.50;79.70;;;;;;5140686;27;20063;-33
2022/01/31 06:27:41;;;;;;;7.70;1.92;;;3.60;79.90;;;;;;5140534;27;20139;-33
2022/01/31 06:30:08;;;;;;;12.40;2.70;;;3.60;79.80;;;;;;5140636;27;20027;-33
2022/01/31 06:32:33;;;;;;;15.15;2.80;;;3.60;79.80;;;;;;5140695;27;20027;-43
2022/01/31 06:34:59;;;;;;;5.90;1.80;;;3.60;80.00;;;;;;5140681;27;20083;-44
2022/01/31 06:37:25;;;;;;;5.28;2.72;;;3.60;80.00;;;;;;5140967;27;20029;-34
2022/01/31 06:39:50;;;;;;;5.28;2.53;;;3.60;80.10;;;;;;5140533;27;20088;-42
2022/01/31 06:42:16;;;;;;;9.73;2.75;;;3.70;80.00;;;;;;5140645;27;20077;-43
2022/01/31 06:44:42;;;;;;;5.38;2.65;;;3.70;80.10;;;;;;5140676;27;20035;-39
2022/01/31 06:47:07;;;;;;;3.30;2.25;;;3.70;79.90;;;;;;5140707;27;20303;-44
2022/01/31 06:49:33;;;;;;;16.85;4.55;;;3.80;79.80;;;;;;5139954;27;20380;-33
2022/01/31 06:51:59;;;;;;;11.32;2.90;;;3.80;79.60;;;;;;5140396;27;20027;-43
2022/01/31 06:54:24;;;;;;;5.78;2.60;;;3.80;80.10;;;;;;5140280;27;20114;-34
2022/01/31 06:56:50;;;;;;;3.97;2.08;;;3.80;79.50;;;;;;5140247;27;20419;-35
2022/01/31 06:59:16;;;;;;;8.80;2.53;;;3.90;79.50;;;;;;5140113;27;20035;-43
2022/01/31 07:01:41;;;;;;;10.73;3.45;;;3.90;79.20;;;;;;5140099;27;20160;-33
2022/01/31 07:04:07;;;;;;;8.43;2.88;;;4.00;79.10;;;;;;5140106;27;20438;-43
2022/01/31 07:06:33;;;;;;;11.25;3.40;;;4.00;78.90;;;;;;5139875;27;20427;-36
2022/01/31 07:08:59;;;;;;;6.72;2.40;;;4.10;78.70;;;;;;5140051;27;20051;-43
2022/01/31 07:11:29;;;;;;;3.47;1.80;;;4.00;78.60;;;;;;5139963;27;20027;-33
2022/01/31 07:14:04;;;;;;;2.38;1.55;;;4.10;78.60;;;;;;5140367;27;20292;-43
2022/01/31 07:16:30;;;;;;;4.15;2.50;;;4.00;78.00;;;;;;5139868;27;20034;-43
2022/01/31 07:19:07;;;;;;;8.88;3.00;;;4.10;78.10;;;;;;5136774;27;20407;-31
2022/01/31 07:21:39;;;;;;;4.22;2.05;;;4.10;77.70;;;;;;5139421;27;20035;-42
2022/01/31 07:24:19;;;;;;;3.47;1.50;;;4.00;77.60;;;;;;5139283;27;20050;-31
2022/01/31 07:26:46;;;;;;;3.78;1.95;;;4.10;77.70;;;;;;5139640;27;20296;-31
2022/01/31 07:29:12;;;;;;;9.25;3.55;;;4.10;77.70;;;;;;5139253;27;20031;-41
2022/01/31 07:31:39;;;;;;;6.95;3.70;;;4.10;77.40;;;;;;5139378;27;20072;-35
2022/01/31 07:34:06;;;;;;;1.83;1.27;;;4.10;77.30;;;;;;5137919;27;20517;-32
2022/01/31 07:36:32;;;;;;;4.05;1.35;;;4.00;77.00;;;;;;5139308;27;20027;-43
2022/01/31 07:38:58;;;;;;;6.10;3.45;;;4.10;76.90;;;;;;5139655;27;20097;-33
2022/01/31 07:41:23;;;;;;;64.85;27.02;;;4.10;76.80;;;;;;5139245;27;20027;-43
2022/01/31 07:43:49;;;;;;;4.88;1.63;;;4.10;76.90;;;;;;5138978;27;20502;-43
2022/01/31 07:46:15;;;;;;;5.68;2.35;;;4.10;76.60;;;;;;5138803;27;20027;-44
2022/01/31 07:48:41;;;;;;;3.13;1.70;;;4.00;76.30;;;;;;5139207;27;20027;-44
2022/01/31 07:51:10;;;;;;;3.42;1.40;;;4.00;76.40;;;;;;5139190;27;20031;-33
2022/01/31 07:53:39;;;;;;;6.32;2.00;;;4.10;76.40;;;;;;5138752;27;20092;-33
2022/01/31 07:56:08;;;;;;;4.32;1.20;;;4.10;76.60;;;;;;5139072;27;20380;-43
2022/01/31 07:58:38;;;;;;;7.97;2.83;;;4.10;76.40;;;;;;5139081;27;20280;-35
2022/01/31 08:01:05;;;;;;;6.97;3.25;;;4.20;76.10;;;;;;5138186;27;20023;-33
2022/01/31 08:03:31;;;;;;;2.50;1.27;;;4.20;76.00;;;;;;5138847;27;20034;-33
2022/01/31 08:05:57;;;;;;;4.15;1.52;;;4.30;75.40;;;;;;5138656;27;20439;-33
2022/01/31 08:08:31;;;;;;;8.25;1.50;;;4.20;75.40;;;;;;5139011;27;20119;-34
2022/01/31 08:10:57;;;;;;;2.10;1.30;;;4.30;75.10;;;;;;5138678;27;20054;-44
2022/01/31 08:13:24;;;;;;;2.30;1.40;;;4.30;74.80;;;;;;5138977;27;20030;-43
2022/01/31 08:18:26;;;;;;;5.43;2.10;;;4.40;74.20;;;;;;5135873;27;20016;-44
2022/01/31 08:20:52;;;;;;;7.90;2.90;;;4.40;73.50;;;;;;5137990;27;20301;-44
2022/01/31 08:23:18;;;;;;;2.53;1.33;;;4.50;73.40;;;;;;5138632;27;20023;-34
2022/01/31 08:25:48;;;;;;;1.92;1.23;;;4.50;72.80;;;;;;5138417;27;20372;-43
2022/01/31 08:28:15;;;;;;;3.00;1.00;;;4.60;72.30;;;;;;5138515;27;20031;-43
2022/01/31 08:30:49;;;;;;;9.43;1.90;;;4.60;71.60;;;;;;5129580;27;20034;-43
2022/01/31 08:33:32;;;;;;;8.73;1.20;;;4.60;71.70;;;;;;5118017;28;20059;-36
2022/01/31 08:35:58;;;;;;;14.70;9.15;;;4.60;71.40;;;;;;5117820;28;20032;-44
2022/01/31 08:38:24;;;;;;;2.25;1.67;;;4.60;70.90;;;;;;5117807;28;20027;-42
2022/01/31 08:40:49;;;;;;;3.30;0.95;;;4.60;71.30;;;;;;5117305;28;20099;-43
2022/01/31 08:43:17;;;;;;;1.95;1.45;;;4.60;71.10;;;;;;5117506;28;20032;-44
2022/01/31 08:45:43;;;;;;;4.18;1.80;;;4.60;71.00;;;;;;5116931;28;20032;-34
2022/01/31 08:48:08;;;;;;;1.67;1.00;;;4.60;71.50;;;;;;5117040;28;20054;-36
2022/01/31 08:50:35;;;;;;;4.78;1.95;;;4.60;71.50;;;;;;5116827;28;20028;-45
2022/01/31 08:53:01;;;;;;;1.75;1.10;;;4.60;71.00;;;;;;5117484;28;20035;-33
2022/01/31 08:55:26;;;;;;;3.47;0.90;;;4.70;70.80;;;;;;5117095;28;20031;-44
2022/01/31 08:57:55;;;;;;;1.75;1.08;;;4.70;71.00;;;;;;5117398;28;20034;-43
2022/01/31 09:00:32;;;;;;;1.17;1.00;;;4.70;70.70;;;;;;5116817;28;20038;-43
2022/01/31 09:03:16;;;;;;;2.35;1.65;;;4.60;70.40;;;;;;5117319;28;20331;-34
2022/01/31 09:05:43;;;;;;;2.88;1.48;;;4.60;70.50;;;;;;5124094;27;20038;-43
2022/01/31 09:08:08;;;;;;;3.60;1.90;;;4.60;70.40;;;;;;5136918;27;20062;-43
2022/01/31 09:10:35;;;;;;;4.05;1.40;;;4.60;70.70;;;;;;5137133;27;20031;-44
2022/01/31 09:13:01;;;;;;;2.90;1.30;;;4.60;70.80;;;;;;5137541;27;20031;-44
2022/01/31 09:15:27;;;;;;;2.63;1.52;;;4.60;70.90;;;;;;5137350;27;20080;-33
2022/01/31 09:17:52;;;;;;;4.40;1.75;;;4.60;71.00;;;;;;5137411;27;20039;-44
2022/01/31 09:20:19;;;;;;;1.85;1.30;;;4.70;71.10;;;;;;5136840;27;20031;-43
2022/01/31 09:22:44;;;;;;;6.75;2.22;;;4.70;70.90;;;;;;5136957;27;20392;-44
2022/01/31 09:25:11;;;;;;;4.70;1.77;;;4.70;71.10;;;;;;5136839;27;20114;-43
2022/01/31 09:27:37;;;;;;;4.88;1.58;;;4.70;71.50;;;;;;5137151;27;20114;-35
2022/01/31 09:30:09;;;;;;;1.58;1.30;;;4.70;71.50;;;;;;5136972;27;20114;-31
2022/01/31 09:32:35;;;;;;;5.47;1.92;;;4.70;71.20;;;;;;5137046;27;20039;-42
2022/01/31 09:35:01;;;;;;;4.40;1.60;;;4.70;70.90;;;;;;5136722;27;20035;-31
2022/01/31 09:37:27;;;;;;;2.35;1.38;;;4.70;71.00;;;;;;5137426;27;20121;-41
2022/01/31 09:39:53;;;;;;;3.65;1.50;;;4.70;70.90;;;;;;5136992;27;20464;-41
2022/01/31 09:42:31;;;;;;;4.95;1.50;;;4.70;70.70;;;;;;5136804;27;20431;-35
2022/01/31 09:45:12;;;;;;;6.97;1.98;;;4.80;70.70;;;;;;5136702;27;20053;-31
2022/01/31 09:50:07;;;;;;;11.45;3.30;;;4.90;70.20;;;;;;5136516;27;20055;-42
2022/01/31 09:52:33;;;;;;;5.40;2.15;;;4.90;69.20;;;;;;5136755;27;20114;-39
2022/01/31 09:54:59;;;;;;;6.15;1.70;;;4.90;69.40;;;;;;5136463;27;20063;-31
2022/01/31 09:57:24;;;;;;;2.30;1.08;;;4.90;69.20;;;;;;5136512;27;20042;-32
2022/01/31 09:59:50;;;;;;;1.60;1.30;;;4.90;67.80;;;;;;5136414;27;20027;-42
2022/01/31 10:02:16;;;;;;;1.83;1.17;;;4.90;67.50;;;;;;5137081;27;20031;-31
2022/01/31 10:04:44;;;;;;;1.60;1.17;;;4.90;67.60;;;;;;5136899;27;20042;-41
2022/01/31 10:07:09;;;;;;;3.35;1.40;;;4.90;67.20;;;;;;5136849;27;20023;-32
2022/01/31 10:09:35;;;;;;;3.03;1.30;;;4.90;67.40;;;;;;5133030;27;20047;-32
2022/01/31 10:12:08;;;;;;;3.60;1.75;;;4.90;67.40;;;;;;5136754;28;20037;-31
2022/01/31 10:17:29;;;;;;;;;;;4.90;66.90;;;;;;5137241;28;20446;-43
2022/01/31 10:20:05;;;;;;;5.30;1.92;;;4.90;66.80;;;;;;5136132;28;20283;-42
2022/01/31 10:22:34;;;;;;;6.88;2.08;;;4.90;66.90;;;;;;5136756;28;20023;-41
2022/01/31 10:25:03;;;;;;;2.72;1.50;;;4.90;66.70;;;;;;5136306;28;20404;-41
2022/01/31 10:27:33;;;;;;;1.80;1.30;;;4.80;66.70;;;;;;5136584;28;20038;-41
2022/01/31 10:30:27;;;;;;;9.35;4.40;;;4.90;66.60;;;;;;5136418;28;20407;-42
2022/01/31 10:32:55;;;;;;;8.57;2.60;;;4.90;66.50;;;;;;5133931;28;20296;-31
2022/01/31 10:35:29;;;;;;;2.58;1.60;;;4.90;66.40;;;;;;5136092;28;20035;-34
2022/01/31 10:37:57;;;;;;;3.67;2.28;;;4.90;66.20;;;;;;5136331;28;20046;-32
2022/01/31 10:54:14;;;;;;;4.78;1.70;;;5.10;65.70;;;;;;5115561;28;20533;-43
2022/01/31 10:56:42;;;;;;;5.75;4.40;;;5.20;65.50;;;;;;5115837;28;20024;-44
2022/01/31 10:59:13;;;;;;;1.92;1.42;;;5.20;65.80;;;;;;5115304;28;20047;-43
2022/01/31 11:01:40;;;;;;;2.70;1.48;;;5.30;65.90;;;;;;5115504;28;20040;-33
2022/01/31 11:04:10;;;;;;;3.22;1.50;;;5.30;65.70;;;;;;5115594;28;20071;-44
2022/01/31 11:06:39;;;;;;;4.00;2.30;;;5.40;65.40;;;;;;5115399;28;20023;-42
2022/01/31 11:09:08;;;;;;;7.70;3.60;;;5.40;65.00;;;;;;5116005;28;20116;-43
2022/01/31 11:11:36;;;;;;;2.45;1.40;;;5.40;64.80;;;;;;5119193;28;20251;-33
2022/01/31 11:14:03;;;;;;;12.98;2.90;;;5.40;64.70;;;;;;5118936;28;20030;-43
2022/01/31 11:16:30;;;;;;;12.70;3.67;;;5.30;65.00;;;;;;5118832;28;20019;-44
2022/01/31 11:18:58;;;;;;;7.07;4.45;;;5.30;65.50;;;;;;5119415;28;20496;-44
2022/01/31 11:21:29;;;;;;;2.85;1.95;;;5.20;65.60;;;;;;5118834;28;20439;-43
2022/01/31 11:24:03;;;;;;;4.25;2.05;;;5.10;65.70;;;;;;5119345;28;20140;-33
2022/01/31 11:26:40;;;;;;;2.78;1.75;;;5.00;66.00;;;;;;5118869;28;20339;-34
2022/01/31 11:29:08;;;;;;;6.63;2.00;;;5.00;66.30;;;;;;5124174;27;20071;-44
2022/01/31 11:31:37;;;;;;;6.97;3.08;;;5.00;66.50;;;;;;5139102;27;20033;-43
2022/01/31 11:34:05;;;;;;;3.30;2.05;;;5.00;66.80;;;;;;5139663;27;20030;-44
2022/01/31 11:36:34;;;;;;;3.15;1.98;;;4.90;66.20;;;;;;5139132;27;20023;-33
2022/01/31 11:39:04;;;;;;;3.40;1.75;;;4.90;66.00;;;;;;5139138;27;20123;-34
2022/01/31 11:41:31;;;;;;;7.93;1.95;;;4.80;66.10;;;;;;5138872;27;20376;-34
2022/01/31 11:44:04;;;;;;;3.55;1.80;;;4.80;66.10;;;;;;5139375;27;20046;-43
2022/01/31 11:46:30;;;;;;;4.07;1.23;;;4.70;65.80;;;;;;5137249;27;20076;-33
2022/01/31 11:48:57;;;;;;;3.03;1.75;;;4.70;65.60;;;;;;5139220;27;20031;-43
2022/01/31 11:51:22;;;;;;;3.65;1.70;;;4.60;65.30;;;;;;5138963;27;20102;-34
2022/01/31 11:53:49;;;;;;;14.30;3.00;;;4.60;65.60;;;;;;5139228;27;20446;-44
2022/01/31 11:56:17;;;;;;;3.10;1.52;;;4.50;65.90;;;;;;5138625;27;20028;-34
2022/01/31 11:58:46;;;;;;;4.07;1.83;;;4.60;65.60;;;;;;5139241;27;20050;-43
2022/01/31 12:01:12;;;;;;;3.03;1.85;;;4.50;65.40;;;;;;5138563;27;20032;-33
2022/01/31 12:03:51;;;;;;;5.10;1.98;;;4.60;65.40;;;;;;5139061;27;20046;-45
2022/01/31 12:06:24;;;;;;;6.45;1.60;;;4.60;64.40;;;;;;5138847;27;20251;-45
2022/01/31 12:08:52;;;;;;;2.67;2.00;;;4.60;64.60;;;;;;5138736;27;20043;-43
2022/01/31 12:11:26;;;;;;;2.72;2.00;;;4.60;64.10;;;;;;5138416;27;20456;-34
2022/01/31 12:13:56;;;;;;;5.80;2.72;;;4.60;64.60;;;;;;5139073;27;20038;-33
2022/01/31 12:16:46;;;;;;;2.33;1.60;;;4.60;63.10;;;;;;5120192;27;20308;-34
2022/01/31 12:22:02;;;;;;;2.67;1.95;;;4.60;62.30;;;;;;5138620;27;20034;-44
2022/01/31 12:24:39;;;;;;;4.63;2.13;;;4.60;62.40;;;;;;5137796;27;20055;-33
2022/01/31 12:27:07;;;;;;;5.55;2.15;;;4.60;62.70;;;;;;5138309;27;20027;-30
2022/01/31 12:29:44;;;;;;;3.78;2.15;;;4.60;62.60;;;;;;5138066;27;20034;-33
2022/01/31 12:32:11;;;;;;;3.38;1.90;;;4.60;62.50;;;;;;5138388;27;20102;-43
2022/01/31 12:34:39;;;;;;;5.65;2.55;;;4.60;61.80;;;;;;5137851;27;20035;-43
2022/01/31 12:37:16;;;;;;;2.85;1.50;;;4.60;61.60;;;;;;5138187;27;20167;-33
2022/01/31 12:39:45;;;;;;;6.72;3.17;;;4.60;61.60;;;;;;5137622;27;20308;-43
2022/01/31 12:45:39;;;;;;;2.17;1.65;;;4.60;61.00;;;;;;5137681;27;20035;-34
2022/01/31 12:48:20;;;;;;;4.55;1.70;;;4.50;60.70;;;;;;5137937;27;20031;-33
2022/01/31 12:51:00;;;;;;;3.30;1.92;;;4.50;60.20;;;;;;5137626;27;20028;-43
2022/01/31 12:53:28;;;;;;;1.88;1.02;;;4.50;60.10;;;;;;5137776;27;20320;-33
2022/01/31 12:55:57;;;;;;;2.78;1.63;;;4.50;60.40;;;;;;5137652;27;20058;-33
2022/01/31 12:58:32;;;;;;;4.68;1.45;;;4.50;60.00;;;;;;5138226;27;20042;-33
2022/01/31 13:00:58;;;;;;;2.95;1.75;;;4.50;60.00;;;;;;5132850;27;20027;-34
2022/01/31 13:03:48;;;;;;;3.47;1.15;;;4.60;60.20;;;;;;5136984;27;20038;-44
2022/01/31 13:06:34;;;;;;;9.75;1.92;;;4.60;59.10;;;;;;5127450;27;20065;-43
2022/01/31 13:09:19;;;;;;;5.78;1.77;;;4.60;59.60;;;;;;5137110;27;20126;-43
2022/01/31 13:11:47;;;;;;;4.10;1.60;;;4.70;58.90;;;;;;5137363;27;20020;-44
2022/01/31 13:14:17;;;;;;;4.22;1.60;;;4.70;58.80;;;;;;5137019;27;20039;-43
2022/01/31 13:17:01;;;;;;;2.55;1.70;;;4.70;59.00;;;;;;5137294;27;20430;-44
2022/01/31 13:19:31;;;;;;;7.82;1.90;;;4.70;58.30;;;;;;5136131;27;20027;-44
2022/01/31 13:21:58;;;;;;;4.80;1.70;;;4.70;58.10;;;;;;5136859;27;20027;-33
2022/01/31 13:24:45;;;;;;;2.10;1.63;;;4.70;58.10;;;;;;5136249;27;20028;-43
2022/01/31 13:27:14;;;;;;;12.80;2.53;;;4.70;57.50;;;;;;5137297;27;20023;-43
2022/01/31 13:29:52;;;;;;;5.95;3.10;;;4.70;57.30;;;;;;5136019;27;20098;-33